Severy, Kansas
Current Conditions -  °F | °C
As of 2:15 AM on Monday 24 Nov 2014 (Local Time) from KEQA Reporting Station
Clear Clear  
Wind Chill: 30°   Ceiling: Unl
Heat Index: 37°   Visibility: 10mi
Dew Point: 28°   Wind: 12mph
Humidity: 70%   Direction: 300°WNW
Pressure: 29.7"   Gusts: 17mph
Location:  37.62°N, 96.23°W
Report Text: KEQA 240815Z AUTO 30010G15KT 10SM CLR 03/M02 A2970 RMK AO2
Loading
Personal Weather Stations






























Interactive Weather Map New forecast layout! Learn more

10-Day Weather Forecast

Advertisements
Track Severe Weather on mobile